IGO6815 KSYR-KJFK
Flight info
| Callsign | IGO6815 |
|---|---|
| Flight time | N/A |
| Altitude | 27000 |
| Route | ARRKK PUCKY1 |
| Aircraft | A321/M-SDE3FGHIRWY/LB1 |
Departure
| Time | 2026-04-27 20:35 |
|---|---|
| Airport | Syracuse Hancock International Airport (KSYR) |
Arrival
| Time | N/A |
|---|---|
| Airport | John F. Kennedy International Airport (KJFK) |
| Time | Latitude | Longitude | Altitude | Speed | Heading |
|---|---|---|---|---|---|
| 2026-04-27 19:56 | 43.11349 | -76.10944 | 423 ft | 0 kts | 201° |
| 2026-04-27 19:59 | 43.11350 | -76.10944 | 423 ft | 0 kts | 201° |
| 2026-04-27 20:23 | 43.11353 | -76.10942 | 411 ft | 3 kts | 200° |
| 2026-04-27 20:23 | 43.11377 | -76.10934 | 412 ft | 4 kts | 171° |
| 2026-04-27 20:23 | 43.11395 | -76.10947 | 414 ft | 4 kts | 109° |
| 2026-04-27 20:23 | 43.11398 | -76.10961 | 417 ft | 0 kts | 89° |
| 2026-04-27 20:26 | 43.11398 | -76.10940 | 418 ft | 4 kts | 89° |
| 2026-04-27 20:26 | 43.11399 | -76.10890 | 422 ft | 7 kts | 88° |
| 2026-04-27 20:27 | 43.11403 | -76.10810 | 420 ft | 10 kts | 86° |
| 2026-04-27 20:27 | 43.11372 | -76.10738 | 420 ft | 10 kts | 168° |
| 2026-04-27 20:27 | 43.11308 | -76.10734 | 417 ft | 8 kts | 178° |
| 2026-04-27 20:27 | 43.11247 | -76.10731 | 420 ft | 9 kts | 177° |
| 2026-04-27 20:28 | 43.11171 | -76.10725 | 414 ft | 13 kts | 176° |
| 2026-04-27 20:28 | 43.11075 | -76.10719 | 413 ft | 14 kts | 179° |
| 2026-04-27 20:28 | 43.11006 | -76.10796 | 416 ft | 14 kts | 256° |
| 2026-04-27 20:28 | 43.11001 | -76.10885 | 413 ft | 14 kts | 266° |
| 2026-04-27 20:29 | 43.10995 | -76.11045 | 423 ft | 12 kts | 267° |
| 2026-04-27 20:29 | 43.10991 | -76.11154 | 424 ft | 12 kts | 267° |
| 2026-04-27 20:29 | 43.10987 | -76.11281 | 416 ft | 15 kts | 268° |
| 2026-04-27 20:29 | 43.10983 | -76.11432 | 416 ft | 16 kts | 268° |
| 2026-04-27 20:30 | 43.10979 | -76.11586 | 418 ft | 16 kts | 268° |
| 2026-04-27 20:30 | 43.10974 | -76.11753 | 418 ft | 19 kts | 267° |
| 2026-04-27 20:30 | 43.10967 | -76.11937 | 419 ft | 19 kts | 267° |
| 2026-04-27 20:30 | 43.10961 | -76.12109 | 423 ft | 17 kts | 266° |
| 2026-04-27 20:31 | 43.10955 | -76.12273 | 424 ft | 17 kts | 267° |
| 2026-04-27 20:31 | 43.10950 | -76.12394 | 426 ft | 10 kts | 267° |
| 2026-04-27 20:31 | 43.10947 | -76.12480 | 429 ft | 8 kts | 268° |
| 2026-04-27 20:31 | 43.10945 | -76.12542 | 421 ft | 6 kts | 268° |
| 2026-04-27 20:32 | 43.10941 | -76.12590 | 421 ft | 6 kts | 256° |
| 2026-04-27 20:32 | 43.10927 | -76.12622 | 420 ft | 0 kts | 223° |
| 2026-04-27 20:33 | 43.10924 | -76.12625 | 421 ft | 3 kts | 219° |
| 2026-04-27 20:33 | 43.10858 | -76.12601 | 427 ft | 15 kts | 142° |
| 2026-04-27 20:33 | 43.10825 | -76.12495 | 426 ft | 0 kts | 89° |
| 2026-04-27 20:34 | 43.10836 | -76.12194 | 423 ft | 69 kts | 86° |
| 2026-04-27 20:34 | 43.10856 | -76.11619 | 418 ft | 112 kts | 87° |
| 2026-04-27 20:34 | 43.10916 | -76.09735 | 429 ft | 177 kts | 86° |
| 2026-04-27 20:35 | 43.10955 | -76.08628 | 898 ft | 172 kts | 86° |
| 2026-04-27 20:35 | 43.11012 | -76.07016 | 1575 ft | 169 kts | 88° |
| 2026-04-27 20:35 | 43.11065 | -76.05408 | 2132 ft | 172 kts | 88° |
| 2026-04-27 20:35 | 43.11119 | -76.03665 | 2394 ft | 194 kts | 89° |
| 2026-04-27 20:36 | 43.11179 | -76.01721 | 2592 ft | 217 kts | 89° |
| 2026-04-27 20:36 | 43.11239 | -75.99533 | 2870 ft | 242 kts | 89° |
| 2026-04-27 20:36 | 43.11175 | -75.97176 | 3359 ft | 253 kts | 105° |
| 2026-04-27 20:36 | 43.10385 | -75.95034 | 3964 ft | 256 kts | 132° |
| 2026-04-27 20:37 | 43.09041 | -75.93423 | 4713 ft | 258 kts | 141° |
| 2026-04-27 20:37 | 43.07635 | -75.91874 | 5475 ft | 260 kts | 141° |
| 2026-04-27 20:37 | 43.06219 | -75.90316 | 6188 ft | 262 kts | 141° |
| 2026-04-27 20:37 | 43.04790 | -75.88747 | 6876 ft | 265 kts | 141° |
| 2026-04-27 20:38 | 43.03342 | -75.87158 | 7527 ft | 268 kts | 142° |
| 2026-04-27 20:38 | 43.01877 | -75.85547 | 8168 ft | 273 kts | 142° |
| 2026-04-27 20:38 | 43.00382 | -75.83907 | 8782 ft | 278 kts | 141° |
| 2026-04-27 20:38 | 42.98861 | -75.82236 | 9392 ft | 283 kts | 141° |
| 2026-04-27 20:39 | 42.97321 | -75.80541 | 10008 ft | 288 kts | 141° |
| 2026-04-27 20:39 | 42.95714 | -75.78774 | 10261 ft | 306 kts | 141° |
| 2026-04-27 20:39 | 42.94001 | -75.76892 | 10375 ft | 327 kts | 141° |
| 2026-04-27 20:39 | 42.92191 | -75.74904 | 10696 ft | 339 kts | 141° |
| 2026-04-27 20:40 | 42.90339 | -75.72869 | 11216 ft | 344 kts | 141° |
| 2026-04-27 20:40 | 42.88467 | -75.70815 | 11754 ft | 348 kts | 141° |
| 2026-04-27 20:40 | 42.86569 | -75.68736 | 12306 ft | 352 kts | 140° |
| 2026-04-27 20:40 | 42.84652 | -75.66640 | 12845 ft | 356 kts | 140° |
| 2026-04-27 20:41 | 42.82708 | -75.64519 | 13388 ft | 360 kts | 140° |
| 2026-04-27 20:41 | 42.80747 | -75.62375 | 13937 ft | 364 kts | 140° |
| 2026-04-27 20:41 | 42.78763 | -75.60212 | 14446 ft | 367 kts | 140° |
| 2026-04-27 20:41 | 42.76757 | -75.58031 | 14939 ft | 370 kts | 140° |
| 2026-04-27 20:42 | 42.74765 | -75.55861 | 15437 ft | 373 kts | 140° |
| 2026-04-27 20:42 | 42.72732 | -75.53646 | 15941 ft | 376 kts | 140° |
| 2026-04-27 20:42 | 42.70682 | -75.51410 | 16427 ft | 380 kts | 140° |
| 2026-04-27 20:42 | 42.68608 | -75.49158 | 16903 ft | 383 kts | 140° |
| 2026-04-27 20:43 | 42.66518 | -75.46891 | 17378 ft | 386 kts | 140° |
| 2026-04-27 20:43 | 42.64408 | -75.44604 | 17855 ft | 390 kts | 139° |
| 2026-04-27 20:43 | 42.62281 | -75.42302 | 18315 ft | 393 kts | 139° |
| 2026-04-27 20:43 | 42.60136 | -75.39980 | 18727 ft | 396 kts | 139° |
| 2026-04-27 20:44 | 42.57971 | -75.37636 | 19118 ft | 400 kts | 139° |
| 2026-04-27 20:44 | 42.55789 | -75.35278 | 19520 ft | 403 kts | 139° |
| 2026-04-27 20:44 | 42.53590 | -75.32901 | 19921 ft | 406 kts | 139° |
| 2026-04-27 20:44 | 42.51369 | -75.30502 | 20301 ft | 410 kts | 139° |
| 2026-04-27 20:45 | 42.49127 | -75.28084 | 20671 ft | 413 kts | 139° |
| 2026-04-27 20:45 | 42.46868 | -75.25656 | 21049 ft | 416 kts | 139° |
| 2026-04-27 20:45 | 42.44591 | -75.23212 | 21417 ft | 419 kts | 139° |
| 2026-04-27 20:45 | 42.42293 | -75.20747 | 21791 ft | 423 kts | 139° |
| 2026-04-27 20:46 | 42.39980 | -75.18267 | 22160 ft | 426 kts | 139° |
| 2026-04-27 20:46 | 42.37655 | -75.15772 | 22522 ft | 429 kts | 139° |
| 2026-04-27 20:46 | 42.35346 | -75.13274 | 22854 ft | 431 kts | 136° |
| 2026-04-27 20:46 | 42.33374 | -75.10259 | 23176 ft | 427 kts | 118° |
| 2026-04-27 20:47 | 42.32194 | -75.06630 | 23487 ft | 420 kts | 99° |
| 2026-04-27 20:47 | 42.31823 | -75.02752 | 23798 ft | 416 kts | 88° |
| 2026-04-27 20:47 | 42.31672 | -74.98831 | 24094 ft | 419 kts | 88° |
| 2026-04-27 20:47 | 42.31530 | -74.94883 | 24384 ft | 421 kts | 88° |
| 2026-04-27 20:48 | 42.31384 | -74.90920 | 24674 ft | 424 kts | 87° |
| 2026-04-27 20:48 | 42.31233 | -74.86924 | 24955 ft | 427 kts | 88° |
| 2026-04-27 20:48 | 42.31078 | -74.82909 | 25259 ft | 429 kts | 88° |
| 2026-04-27 20:48 | 42.30919 | -74.78869 | 25538 ft | 433 kts | 88° |
| 2026-04-27 20:49 | 42.30755 | -74.74789 | 25816 ft | 435 kts | 88° |
| 2026-04-27 20:49 | 42.30588 | -74.70700 | 26097 ft | 438 kts | 88° |
| 2026-04-27 20:49 | 42.30415 | -74.66576 | 26386 ft | 441 kts | 88° |
| 2026-04-27 20:49 | 42.30240 | -74.62424 | 26674 ft | 444 kts | 87° |
| 2026-04-27 20:50 | 42.30019 | -74.58258 | 26947 ft | 449 kts | 93° |
| 2026-04-27 20:50 | 42.29178 | -74.54146 | 27193 ft | 460 kts | 109° |
| 2026-04-27 20:50 | 42.27524 | -74.50441 | 26989 ft | 465 kts | 128° |
| 2026-04-27 20:50 | 42.25101 | -74.47553 | 26717 ft | 467 kts | 146° |
| 2026-04-27 20:51 | 42.22199 | -74.45725 | 26473 ft | 469 kts | 162° |
| 2026-04-27 20:51 | 42.19086 | -74.44373 | 26232 ft | 470 kts | 162° |
| 2026-04-27 20:51 | 42.15981 | -74.43035 | 25985 ft | 468 kts | 162° |
| 2026-04-27 20:51 | 42.12882 | -74.41700 | 25739 ft | 466 kts | 162° |
| 2026-04-27 20:52 | 42.09792 | -74.40366 | 25495 ft | 465 kts | 162° |
| 2026-04-27 20:52 | 42.06723 | -74.39040 | 25255 ft | 463 kts | 162° |
| 2026-04-27 20:52 | 42.03662 | -74.37718 | 25014 ft | 461 kts | 161° |
| 2026-04-27 20:52 | 42.00614 | -74.36405 | 24777 ft | 459 kts | 162° |
| 2026-04-27 20:53 | 41.97575 | -74.35101 | 24540 ft | 457 kts | 162° |
| 2026-04-27 20:53 | 41.94549 | -74.33804 | 24311 ft | 456 kts | 161° |
| 2026-04-27 20:53 | 41.91530 | -74.32505 | 24077 ft | 454 kts | 161° |
| 2026-04-27 20:53 | 41.89017 | -74.31428 | 23881 ft | 453 kts | 161° |
| 2026-04-27 20:54 | 41.83040 | -74.28870 | 23341 ft | 448 kts | 161° |
| 2026-04-27 20:54 | 41.80077 | -74.27608 | 23062 ft | 446 kts | 161° |
| 2026-04-27 20:54 | 41.77126 | -74.26350 | 22812 ft | 444 kts | 161° |
| 2026-04-27 20:55 | 41.74195 | -74.25098 | 22536 ft | 441 kts | 161° |
| 2026-04-27 20:55 | 41.71279 | -74.23852 | 22268 ft | 439 kts | 161° |
| 2026-04-27 20:55 | 41.68374 | -74.22614 | 22008 ft | 437 kts | 161° |
| 2026-04-27 20:55 | 41.65491 | -74.21389 | 21751 ft | 434 kts | 161° |
| 2026-04-27 20:56 | 41.62615 | -74.20166 | 21493 ft | 432 kts | 161° |
| 2026-04-27 20:56 | 41.59766 | -74.18955 | 21231 ft | 424 kts | 161° |
| 2026-04-27 20:56 | 41.56989 | -74.17780 | 20982 ft | 414 kts | 161° |
| 2026-04-27 20:56 | 41.54317 | -74.16647 | 20719 ft | 390 kts | 160° |
| 2026-04-27 20:57 | 41.51793 | -74.15576 | 20336 ft | 372 kts | 160° |
| 2026-04-27 20:57 | 41.49331 | -74.14530 | 20229 ft | 370 kts | 160° |
| 2026-04-27 20:57 | 41.46863 | -74.13480 | 20255 ft | 373 kts | 160° |
| 2026-04-27 20:57 | 41.44424 | -74.12447 | 20256 ft | 373 kts | 160° |
| 2026-04-27 20:58 | 41.41920 | -74.11390 | 20255 ft | 372 kts | 160° |
| 2026-04-27 20:58 | 41.39397 | -74.10597 | 20254 ft | 374 kts | 172° |
| 2026-04-27 20:58 | 41.36829 | -74.10467 | 20248 ft | 375 kts | 184° |
| 2026-04-27 20:58 | 41.34274 | -74.11002 | 19894 ft | 371 kts | 197° |
| 2026-04-27 20:59 | 41.31871 | -74.12191 | 19477 ft | 366 kts | 209° |
| 2026-04-27 20:59 | 41.29707 | -74.13920 | 19134 ft | 359 kts | 216° |
| 2026-04-27 20:59 | 41.27646 | -74.15706 | 18915 ft | 351 kts | 215° |
| 2026-04-27 20:59 | 41.25602 | -74.17453 | 18588 ft | 347 kts | 214° |
| 2026-04-27 21:00 | 41.23576 | -74.19168 | 18199 ft | 345 kts | 214° |
| 2026-04-27 21:00 | 41.21559 | -74.20877 | 17777 ft | 342 kts | 214° |
| 2026-04-27 21:00 | 41.19569 | -74.22566 | 17428 ft | 338 kts | 214° |
| 2026-04-27 21:00 | 41.17593 | -74.24240 | 17080 ft | 334 kts | 214° |
| 2026-04-27 21:01 | 41.15673 | -74.25863 | 16965 ft | 320 kts | 214° |
| 2026-04-27 21:01 | 41.13798 | -74.27445 | 16401 ft | 320 kts | 214° |
| 2026-04-27 21:01 | 41.11922 | -74.29035 | 15899 ft | 318 kts | 214° |
| 2026-04-27 21:01 | 41.10064 | -74.30609 | 15456 ft | 315 kts | 214° |
| 2026-04-27 21:02 | 41.08233 | -74.32164 | 15012 ft | 311 kts | 214° |
| 2026-04-27 21:02 | 41.06336 | -74.33418 | 14590 ft | 309 kts | 198° |
| 2026-04-27 21:02 | 41.04237 | -74.33777 | 13965 ft | 302 kts | 175° |
| 2026-04-27 21:02 | 41.02217 | -74.33134 | 13149 ft | 297 kts | 154° |
| 2026-04-27 21:03 | 41.00522 | -74.31652 | 12404 ft | 290 kts | 134° |
| 2026-04-27 21:03 | 40.99293 | -74.29598 | 11675 ft | 282 kts | 120° |
| 2026-04-27 21:03 | 40.98238 | -74.27433 | 11011 ft | 277 kts | 120° |
| 2026-04-27 21:03 | 40.97220 | -74.25363 | 10588 ft | 267 kts | 120° |
| 2026-04-27 21:04 | 40.96174 | -74.23226 | 9827 ft | 284 kts | 120° |
| 2026-04-27 21:04 | 40.95090 | -74.21017 | 9331 ft | 287 kts | 121° |
| 2026-04-27 21:04 | 40.94005 | -74.18822 | 9066 ft | 282 kts | 120° |
| 2026-04-27 21:04 | 40.92938 | -74.16666 | 8745 ft | 279 kts | 120° |
| 2026-04-27 21:05 | 40.91878 | -74.14527 | 8407 ft | 276 kts | 120° |
| 2026-04-27 21:05 | 40.90849 | -74.12454 | 8075 ft | 274 kts | 120° |
| 2026-04-27 21:05 | 40.90085 | -74.10204 | 7739 ft | 267 kts | 98° |
| 2026-04-27 21:05 | 40.90004 | -74.08536 | 7504 ft | 261 kts | 82° |
| 2026-04-27 21:06 | 40.90512 | -74.06271 | 7161 ft | 257 kts | 59° |
| 2026-04-27 21:06 | 40.91644 | -74.04486 | 6806 ft | 255 kts | 37° |
| 2026-04-27 21:06 | 40.93225 | -74.03447 | 6425 ft | 255 kts | 15° |
| 2026-04-27 21:06 | 40.94994 | -74.03344 | 6052 ft | 258 kts | 351° |
| 2026-04-27 21:07 | 40.96671 | -74.04204 | 5664 ft | 262 kts | 328° |
| 2026-04-27 21:07 | 40.97957 | -74.05908 | 5301 ft | 265 kts | 304° |
| 2026-04-27 21:07 | 40.98875 | -74.08020 | 4953 ft | 265 kts | 300° |
| 2026-04-27 21:07 | 40.99721 | -74.10159 | 4593 ft | 264 kts | 299° |
| 2026-04-27 21:08 | 41.00556 | -74.12328 | 4280 ft | 264 kts | 298° |
| 2026-04-27 21:08 | 41.01388 | -74.14498 | 3931 ft | 264 kts | 298° |
| 2026-04-27 21:08 | 41.02159 | -74.16701 | 3586 ft | 264 kts | 287° |
| 2026-04-27 21:08 | 41.02314 | -74.19097 | 3308 ft | 262 kts | 262° |
| 2026-04-27 21:09 | 41.01732 | -74.21350 | 2992 ft | 257 kts | 236° |
| 2026-04-27 21:09 | 41.00518 | -74.23048 | 2966 ft | 256 kts | 212° |
| 2026-04-27 21:09 | 40.98899 | -74.23991 | 2977 ft | 254 kts | 188° |
| 2026-04-27 21:09 | 40.97157 | -74.24011 | 2968 ft | 251 kts | 165° |
| 2026-04-27 21:10 | 40.95571 | -74.23115 | 2971 ft | 249 kts | 142° |
| 2026-04-27 21:10 | 40.94380 | -74.21478 | 2972 ft | 248 kts | 120° |
| 2026-04-27 21:10 | 40.93683 | -74.19396 | 2969 ft | 248 kts | 112° |
| 2026-04-27 21:10 | 40.92931 | -74.17338 | 2972 ft | 249 kts | 116° |
| 2026-04-27 21:11 | 40.92111 | -74.15328 | 2974 ft | 249 kts | 117° |
| 2026-04-27 21:11 | 40.91272 | -74.13323 | 2975 ft | 249 kts | 118° |
| 2026-04-27 21:11 | 40.90494 | -74.11288 | 2968 ft | 248 kts | 107° |
| 2026-04-27 21:11 | 40.90350 | -74.09047 | 2974 ft | 247 kts | 79° |
| 2026-04-27 21:12 | 40.91045 | -74.06995 | 2978 ft | 248 kts | 51° |
| 2026-04-27 21:12 | 40.92414 | -74.05611 | 2973 ft | 251 kts | 23° |
| 2026-04-27 21:12 | 40.94137 | -74.05251 | 2976 ft | 255 kts | 355° |
| 2026-04-27 21:12 | 40.95799 | -74.06037 | 2978 ft | 259 kts | 326° |
| 2026-04-27 21:13 | 40.96993 | -74.07815 | 2972 ft | 262 kts | 299° |
| 2026-04-27 21:13 | 40.97844 | -74.09948 | 2971 ft | 263 kts | 297° |
| 2026-04-27 21:13 | 40.98686 | -74.12111 | 2971 ft | 264 kts | 297° |
| 2026-04-27 21:13 | 40.99524 | -74.14270 | 2974 ft | 264 kts | 297° |
| 2026-04-27 21:14 | 41.00319 | -74.16422 | 2961 ft | 263 kts | 289° |
| 2026-04-27 21:14 | 41.00495 | -74.18805 | 2974 ft | 262 kts | 259° |
| 2026-04-27 21:14 | 40.99771 | -74.20966 | 2966 ft | 259 kts | 228° |
| 2026-04-27 21:14 | 40.98350 | -74.22370 | 2965 ft | 254 kts | 199° |
| 2026-04-27 21:15 | 40.96626 | -74.22689 | 2977 ft | 251 kts | 171° |
| 2026-04-27 21:15 | 40.94970 | -74.21981 | 2975 ft | 253 kts | 154° |
| 2026-04-27 21:15 | 40.93319 | -74.21102 | 2963 ft | 255 kts | 150° |
| 2026-04-27 21:15 | 40.91942 | -74.19665 | 2971 ft | 253 kts | 127° |
| 2026-04-27 21:16 | 40.90931 | -74.17763 | 2966 ft | 254 kts | 128° |
| 2026-04-27 21:16 | 40.89507 | -74.16420 | 2974 ft | 255 kts | 154° |
| 2026-04-27 21:16 | 40.87845 | -74.15550 | 2973 ft | 257 kts | 158° |
| 2026-04-27 21:16 | 40.86163 | -74.14751 | 2974 ft | 258 kts | 158° |
| 2026-04-27 21:17 | 40.84480 | -74.13937 | 2975 ft | 257 kts | 158° |
| 2026-04-27 21:17 | 40.82807 | -74.13093 | 2975 ft | 257 kts | 156° |
| 2026-04-27 21:17 | 40.81145 | -74.12219 | 2969 ft | 257 kts | 156° |
| 2026-04-27 21:17 | 40.79489 | -74.11322 | 2974 ft | 257 kts | 155° |
| 2026-04-27 21:18 | 40.77843 | -74.10412 | 2974 ft | 258 kts | 155° |
| 2026-04-27 21:18 | 40.76182 | -74.09483 | 2995 ft | 258 kts | 155° |
| 2026-04-27 21:18 | 40.74553 | -74.08569 | 3012 ft | 257 kts | 155° |
| 2026-04-27 21:18 | 40.72892 | -74.07639 | 3012 ft | 251 kts | 154° |
| 2026-04-27 21:19 | 40.71353 | -74.06781 | 3009 ft | 234 kts | 154° |
| 2026-04-27 21:19 | 40.69917 | -74.05982 | 3016 ft | 216 kts | 154° |
| 2026-04-27 21:19 | 40.68588 | -74.05242 | 3017 ft | 198 kts | 154° |
| 2026-04-27 21:20 | 40.66139 | -74.03866 | 3022 ft | 188 kts | 154° |
| 2026-04-27 21:20 | 40.64936 | -74.03190 | 3013 ft | 187 kts | 154° |
| 2026-04-27 21:20 | 40.63790 | -74.02550 | 3008 ft | 174 kts | 154° |
| 2026-04-27 21:20 | 40.62693 | -74.01936 | 3010 ft | 169 kts | 153° |
| 2026-04-27 21:21 | 40.61613 | -74.01333 | 3009 ft | 168 kts | 153° |
| 2026-04-27 21:21 | 40.60536 | -74.00732 | 3013 ft | 168 kts | 153° |
| 2026-04-27 21:21 | 40.59464 | -74.00135 | 3005 ft | 166 kts | 153° |
| 2026-04-27 21:21 | 40.58423 | -73.99555 | 3007 ft | 161 kts | 153° |
| 2026-04-27 21:22 | 40.57406 | -73.98967 | 3004 ft | 158 kts | 147° |
| 2026-04-27 21:22 | 40.56585 | -73.98042 | 3006 ft | 155 kts | 124° |
| 2026-04-27 21:22 | 40.56104 | -73.96804 | 3009 ft | 151 kts | 103° |
| 2026-04-27 21:22 | 40.56011 | -73.95445 | 3010 ft | 149 kts | 82° |
| 2026-04-27 21:23 | 40.56296 | -73.94149 | 3013 ft | 148 kts | 63° |
| 2026-04-27 21:23 | 40.56897 | -73.93062 | 2870 ft | 149 kts | 46° |
| 2026-04-27 21:23 | 40.57725 | -73.92239 | 2588 ft | 149 kts | 34° |
| 2026-04-27 21:23 | 40.58620 | -73.91557 | 2296 ft | 149 kts | 31° |
| 2026-04-27 21:24 | 40.59541 | -73.90930 | 2062 ft | 149 kts | 29° |
| 2026-04-27 21:24 | 40.60454 | -73.90276 | 1800 ft | 150 kts | 30° |
| 2026-04-27 21:24 | 40.61377 | -73.89619 | 1543 ft | 151 kts | 31° |
| 2026-04-27 21:24 | 40.61998 | -73.89185 | 1417 ft | 152 kts | 31° |
| 2026-04-27 21:25 | 40.62859 | -73.88549 | 1229 ft | 152 kts | 34° |
| 2026-04-27 21:25 | 40.63776 | -73.87842 | 1068 ft | 153 kts | 34° |
| 2026-04-27 21:25 | 40.64699 | -73.87116 | 898 ft | 155 kts | 36° |
| 2026-04-27 21:25 | 40.65568 | -73.86275 | 759 ft | 155 kts | 47° |
| 2026-04-27 21:26 | 40.65757 | -73.86023 | 727 ft | 156 kts | 51° |